sensor_id;sensor_type;location;lat;lon;timestamp;pressure;altitude;pressure_sealevel;temperature;humidity
49645;BME280;36494;50.730;-1.932;2022-11-14T00:01:33;100675.63;;;12.85;100.00
49645;BME280;36494;50.730;-1.932;2022-11-14T00:03:58;100671.18;;;12.82;100.00
49645;BME280;36494;50.730;-1.932;2022-11-14T00:06:23;100664.84;;;12.79;100.00
49645;BME280;36494;50.730;-1.932;2022-11-14T00:08:49;100660.89;;;12.77;100.00
49645;BME280;36494;50.730;-1.932;2022-11-14T00:11:14;100660.05;;;12.74;100.00
49645;BME280;36494;50.730;-1.932;2022-11-14T00:13:39;100656.94;;;12.71;100.00
49645;BME280;36494;50.730;-1.932;2022-11-14T00:16:05;100651.99;;;12.66;100.00
49645;BME280;36494;50.730;-1.932;2022-11-14T00:18:30;100648.61;;;12.63;100.00
49645;BME280;36494;50.730;-1.932;2022-11-14T00:20:56;100641.02;;;12.61;100.00
49645;BME280;36494;50.730;-1.932;2022-11-14T00:23:21;100636.59;;;12.58;100.00
49645;BME280;36494;50.730;-1.932;2022-11-14T00:25:47;100634.71;;;12.60;100.00
49645;BME280;36494;50.730;-1.932;2022-11-14T00:28:13;100633.16;;;12.57;100.00
49645;BME280;36494;50.730;-1.932;2022-11-14T00:30:37;100634.40;;;12.57;100.00
49645;BME280;36494;50.730;-1.932;2022-11-14T00:33:04;100637.75;;;12.56;100.00
49645;BME280;36494;50.730;-1.932;2022-11-14T00:35:28;100639.19;;;12.55;100.00
49645;BME280;36494;50.730;-1.932;2022-11-14T00:37:54;100641.48;;;12.53;100.00
49645;BME280;36494;50.730;-1.932;2022-11-14T00:40:19;100639.89;;;12.52;100.00
49645;BME280;36494;50.730;-1.932;2022-11-14T00:42:44;100639.99;;;12.51;100.00
49645;BME280;36494;50.730;-1.932;2022-11-14T00:45:10;100643.16;;;12.51;100.00
49645;BME280;36494;50.730;-1.932;2022-11-14T00:47:35;100637.34;;;12.49;100.00
49645;BME280;36494;50.730;-1.932;2022-11-14T00:50:01;100636.69;;;12.48;100.00
49645;BME280;36494;50.730;-1.932;2022-11-14T00:52:26;100630.38;;;12.46;100.00
49645;BME280;36494;50.730;-1.932;2022-11-14T00:54:51;100627.73;;;12.46;100.00
49645;BME280;36494;50.730;-1.932;2022-11-14T00:57:16;100626.75;;;12.45;100.00
49645;BME280;36494;50.730;-1.932;2022-11-14T00:59:41;100624.69;;;12.44;100.00
49645;BME280;36494;50.730;-1.932;2022-11-14T01:02:06;100618.96;;;12.43;100.00
49645;BME280;36494;50.730;-1.932;2022-11-14T01:04:32;100621.18;;;12.42;100.00
49645;BME280;36494;50.730;-1.932;2022-11-14T01:06:57;100620.17;;;12.42;100.00
49645;BME280;36494;50.730;-1.932;2022-11-14T01:09:22;100618.43;;;12.40;100.00
49645;BME280;36494;50.730;-1.932;2022-11-14T01:11:48;100617.75;;;12.38;100.00
49645;BME280;36494;50.730;-1.932;2022-11-14T01:14:13;100616.31;;;12.35;100.00
49645;BME280;36494;50.730;-1.932;2022-11-14T01:16:38;100617.79;;;12.32;100.00
49645;BME280;36494;50.730;-1.932;2022-11-14T01:19:04;100613.90;;;12.28;100.00
49645;BME280;36494;50.730;-1.932;2022-11-14T01:21:30;100610.92;;;12.25;100.00
49645;BME280;36494;50.730;-1.932;2022-11-14T01:23:55;100609.67;;;12.21;100.00
49645;BME280;36494;50.730;-1.932;2022-11-14T01:26:21;100606.43;;;12.17;100.00
49645;BME280;36494;50.730;-1.932;2022-11-14T01:28:46;100601.63;;;12.14;100.00
49645;BME280;36494;50.730;-1.932;2022-11-14T01:31:14;100598.99;;;12.10;100.00
49645;BME280;36494;50.730;-1.932;2022-11-14T01:33:37;100598.19;;;12.07;100.00
49645;BME280;36494;50.730;-1.932;2022-11-14T01:36:04;100595.58;;;12.04;100.00
49645;BME280;36494;50.730;-1.932;2022-11-14T01:38:28;100592.76;;;12.05;100.00
49645;BME280;36494;50.730;-1.932;2022-11-14T01:40:54;100592.33;;;12.08;100.00
49645;BME280;36494;50.730;-1.932;2022-11-14T01:43:24;100591.18;;;12.14;100.00
49645;BME280;36494;50.730;-1.932;2022-11-14T01:45:52;100590.42;;;12.20;100.00
49645;BME280;36494;50.730;-1.932;2022-11-14T01:48:16;100592.09;;;12.18;100.00
49645;BME280;36494;50.730;-1.932;2022-11-14T01:50:35;100595.45;;;12.21;100.00
49645;BME280;36494;50.730;-1.932;2022-11-14T01:53:00;100595.28;;;12.21;100.00
49645;BME280;36494;50.730;-1.932;2022-11-14T01:55:25;100593.73;;;12.29;100.00
49645;BME280;36494;50.730;-1.932;2022-11-14T01:57:51;100586.02;;;12.23;100.00
49645;BME280;36494;50.730;-1.932;2022-11-14T02:00:16;100578.76;;;12.20;100.00
49645;BME280;36494;50.730;-1.932;2022-11-14T02:02:42;100575.24;;;12.20;100.00
49645;BME280;36494;50.730;-1.932;2022-11-14T02:05:09;100572.99;;;12.17;100.00
49645;BME280;36494;50.730;-1.932;2022-11-14T02:07:35;100568.42;;;12.15;100.00
49645;BME280;36494;50.730;-1.932;2022-11-14T02:09:58;100566.86;;;12.13;100.00
49645;BME280;36494;50.730;-1.932;2022-11-14T02:12:23;100568.06;;;12.11;100.00
49645;BME280;36494;50.730;-1.932;2022-11-14T02:14:51;100567.08;;;12.10;100.00
49645;BME280;36494;50.730;-1.932;2022-11-14T02:17:15;100564.11;;;12.07;100.00
49645;BME280;36494;50.730;-1.932;2022-11-14T02:19:41;100562.99;;;12.08;100.00
49645;BME280;36494;50.730;-1.932;2022-11-14T02:22:05;100560.42;;;12.08;100.00
49645;BME280;36494;50.730;-1.932;2022-11-14T02:24:31;100555.95;;;12.12;100.00
49645;BME280;36494;50.730;-1.932;2022-11-14T02:26:56;100549.44;;;12.12;100.00
49645;BME280;36494;50.730;-1.932;2022-11-14T02:29:22;100542.66;;;12.16;100.00
49645;BME280;36494;50.730;-1.932;2022-11-14T02:31:47;100537.29;;;12.17;100.00
49645;BME280;36494;50.730;-1.932;2022-11-14T02:34:12;100536.07;;;12.23;100.00
49645;BME280;36494;50.730;-1.932;2022-11-14T02:36:37;100531.07;;;12.26;100.00
49645;BME280;36494;50.730;-1.932;2022-11-14T02:39:02;100528.34;;;12.36;100.00
49645;BME280;36494;50.730;-1.932;2022-11-14T02:41:28;100528.42;;;12.52;100.00
49645;BME280;36494;50.730;-1.932;2022-11-14T02:43:53;100528.67;;;12.63;100.00
49645;BME280;36494;50.730;-1.932;2022-11-14T02:46:19;100528.99;;;12.78;100.00
49645;BME280;36494;50.730;-1.932;2022-11-14T02:48:44;100530.78;;;12.79;100.00
49645;BME280;36494;50.730;-1.932;2022-11-14T02:51:09;100525.97;;;12.79;100.00
49645;BME280;36494;50.730;-1.932;2022-11-14T02:53:35;100520.91;;;12.77;100.00
49645;BME280;36494;50.730;-1.932;2022-11-14T02:56:00;100517.48;;;12.79;100.00
49645;BME280;36494;50.730;-1.932;2022-11-14T02:58:25;100516.86;;;12.80;100.00
49645;BME280;36494;50.730;-1.932;2022-11-14T03:00:50;100513.56;;;12.82;100.00
49645;BME280;36494;50.730;-1.932;2022-11-14T03:03:15;100508.75;;;12.83;100.00
49645;BME280;36494;50.730;-1.932;2022-11-14T03:05:40;100501.54;;;12.86;100.00
49645;BME280;36494;50.730;-1.932;2022-11-14T03:08:06;100497.12;;;12.85;100.00
49645;BME280;36494;50.730;-1.932;2022-11-14T03:10:31;100495.29;;;12.84;100.00
49645;BME280;36494;50.730;-1.932;2022-11-14T03:12:57;100491.57;;;12.84;100.00
49645;BME280;36494;50.730;-1.932;2022-11-14T03:15:23;100489.30;;;12.85;100.00
49645;BME280;36494;50.730;-1.932;2022-11-14T03:17:48;100486.84;;;12.89;100.00
49645;BME280;36494;50.730;-1.932;2022-11-14T03:20:13;100485.20;;;12.89;100.00
49645;BME280;36494;50.730;-1.932;2022-11-14T03:22:38;100482.07;;;12.89;100.00
49645;BME280;36494;50.730;-1.932;2022-11-14T03:25:04;100476.69;;;12.90;100.00
49645;BME280;36494;50.730;-1.932;2022-11-14T03:27:29;100474.17;;;12.90;100.00
49645;BME280;36494;50.730;-1.932;2022-11-14T03:29:54;100473.46;;;12.95;100.00
49645;BME280;36494;50.730;-1.932;2022-11-14T03:32:19;100470.34;;;12.95;100.00
49645;BME280;36494;50.730;-1.932;2022-11-14T03:34:45;100467.64;;;12.93;100.00
49645;BME280;36494;50.730;-1.932;2022-11-14T03:37:11;100470.77;;;12.93;100.00
49645;BME280;36494;50.730;-1.932;2022-11-14T03:39:36;100473.96;;;12.92;100.00
49645;BME280;36494;50.730;-1.932;2022-11-14T03:42:01;100477.33;;;12.92;100.00
49645;BME280;36494;50.730;-1.932;2022-11-14T03:44:27;100481.03;;;12.93;100.00
49645;BME280;36494;50.730;-1.932;2022-11-14T03:46:53;100485.63;;;12.94;100.00
49645;BME280;36494;50.730;-1.932;2022-11-14T03:49:18;100489.69;;;12.95;100.00
49645;BME280;36494;50.730;-1.932;2022-11-14T03:51:43;100492.35;;;12.97;100.00
49645;BME280;36494;50.730;-1.932;2022-11-14T03:54:09;100488.59;;;12.99;100.00
49645;BME280;36494;50.730;-1.932;2022-11-14T03:56:34;100485.63;;;13.02;100.00
49645;BME280;36494;50.730;-1.932;2022-11-14T03:59:00;100484.50;;;13.03;100.00
49645;BME280;36494;50.730;-1.932;2022-11-14T04:01:25;100485.55;;;13.06;100.00
49645;BME280;36494;50.730;-1.932;2022-11-14T04:03:50;100485.37;;;13.09;100.00
49645;BME280;36494;50.730;-1.932;2022-11-14T04:06:15;100481.46;;;13.15;100.00
49645;BME280;36494;50.730;-1.932;2022-11-14T04:08:41;100480.87;;;13.18;100.00
49645;BME280;36494;50.730;-1.932;2022-11-14T04:11:06;100479.28;;;13.27;100.00
49645;BME280;36494;50.730;-1.932;2022-11-14T04:13:32;100481.93;;;13.33;100.00
49645;BME280;36494;50.730;-1.932;2022-11-14T04:15:57;100483.21;;;13.35;100.00
49645;BME280;36494;50.730;-1.932;2022-11-14T04:18:24;100486.60;;;13.37;100.00
49645;BME280;36494;50.730;-1.932;2022-11-14T04:20:49;100483.45;;;13.35;100.00
49645;BME280;36494;50.730;-1.932;2022-11-14T04:23:14;100478.64;;;13.40;100.00
49645;BME280;36494;50.730;-1.932;2022-11-14T04:25:42;100476.51;;;13.43;100.00
49645;BME280;36494;50.730;-1.932;2022-11-14T04:28:06;100472.42;;;13.49;100.00
49645;BME280;36494;50.730;-1.932;2022-11-14T04:30:31;100468.93;;;13.52;100.00
49645;BME280;36494;50.730;-1.932;2022-11-14T04:32:57;100464.87;;;13.53;100.00
49645;BME280;36494;50.730;-1.932;2022-11-14T04:35:22;100462.46;;;13.56;100.00
49645;BME280;36494;50.730;-1.932;2022-11-14T04:37:47;100465.38;;;13.59;100.00
49645;BME280;36494;50.730;-1.932;2022-11-14T04:40:13;100463.01;;;13.61;100.00
49645;BME280;36494;50.730;-1.932;2022-11-14T04:42:38;100463.18;;;13.64;100.00
49645;BME280;36494;50.730;-1.932;2022-11-14T04:45:04;100470.49;;;13.61;100.00
49645;BME280;36494;50.730;-1.932;2022-11-14T04:47:29;100467.75;;;13.63;100.00
49645;BME280;36494;50.730;-1.932;2022-11-14T04:49:54;100469.65;;;13.65;100.00
49645;BME280;36494;50.730;-1.932;2022-11-14T04:52:19;100465.26;;;13.70;100.00
49645;BME280;36494;50.730;-1.932;2022-11-14T04:54:44;100463.99;;;13.73;100.00
49645;BME280;36494;50.730;-1.932;2022-11-14T04:57:10;100462.27;;;13.73;100.00
49645;BME280;36494;50.730;-1.932;2022-11-14T04:59:35;100461.28;;;13.76;100.00
49645;BME280;36494;50.730;-1.932;2022-11-14T05:02:01;100456.65;;;13.76;100.00
49645;BME280;36494;50.730;-1.932;2022-11-14T05:04:26;100445.41;;;13.79;100.00
49645;BME280;36494;50.730;-1.932;2022-11-14T05:06:51;100440.43;;;13.81;100.00
49645;BME280;36494;50.730;-1.932;2022-11-14T05:09:17;100435.32;;;13.81;100.00
49645;BME280;36494;50.730;-1.932;2022-11-14T05:11:42;100429.42;;;13.81;100.00
49645;BME280;36494;50.730;-1.932;2022-11-14T05:14:08;100426.65;;;13.80;100.00
49645;BME280;36494;50.730;-1.932;2022-11-14T05:16:33;100426.36;;;13.82;100.00
49645;BME280;36494;50.730;-1.932;2022-11-14T05:18:58;100424.77;;;13.81;100.00
49645;BME280;36494;50.730;-1.932;2022-11-14T05:21:24;100423.25;;;13.79;100.00
49645;BME280;36494;50.730;-1.932;2022-11-14T05:23:49;100418.87;;;13.79;100.00
49645;BME280;36494;50.730;-1.932;2022-11-14T05:26:16;100415.00;;;13.81;100.00
49645;BME280;36494;50.730;-1.932;2022-11-14T05:28:40;100415.74;;;13.83;100.00
49645;BME280;36494;50.730;-1.932;2022-11-14T05:31:07;100419.52;;;13.84;100.00
49645;BME280;36494;50.730;-1.932;2022-11-14T05:33:31;100420.17;;;13.86;100.00
49645;BME280;36494;50.730;-1.932;2022-11-14T05:36:01;100419.45;;;13.88;100.00
49645;BME280;36494;50.730;-1.932;2022-11-14T05:38:22;100415.17;;;13.88;100.00
49645;BME280;36494;50.730;-1.932;2022-11-14T05:40:47;100414.01;;;13.88;100.00
49645;BME280;36494;50.730;-1.932;2022-11-14T05:43:13;100415.09;;;13.86;100.00
49645;BME280;36494;50.730;-1.932;2022-11-14T05:45:38;100415.01;;;13.86;100.00
49645;BME280;36494;50.730;-1.932;2022-11-14T05:48:04;100417.42;;;13.85;100.00
49645;BME280;36494;50.730;-1.932;2022-11-14T05:50:29;100416.67;;;13.86;100.00
49645;BME280;36494;50.730;-1.932;2022-11-14T05:52:55;100419.64;;;13.87;100.00
49645;BME280;36494;50.730;-1.932;2022-11-14T05:55:20;100416.00;;;13.91;100.00
49645;BME280;36494;50.730;-1.932;2022-11-14T05:57:45;100415.06;;;13.93;100.00
49645;BME280;36494;50.730;-1.932;2022-11-14T06:00:12;100413.55;;;13.93;100.00
49645;BME280;36494;50.730;-1.932;2022-11-14T06:02:37;100418.85;;;13.92;100.00
49645;BME280;36494;50.730;-1.932;2022-11-14T06:05:02;100416.72;;;13.93;100.00
49645;BME280;36494;50.730;-1.932;2022-11-14T06:07:27;100413.12;;;13.95;100.00
49645;BME280;36494;50.730;-1.932;2022-11-14T06:09:53;100412.47;;;13.97;100.00
49645;BME280;36494;50.730;-1.932;2022-11-14T06:12:18;100412.50;;;13.97;100.00
49645;BME280;36494;50.730;-1.932;2022-11-14T06:14:43;100415.68;;;13.99;100.00
49645;BME280;36494;50.730;-1.932;2022-11-14T06:17:09;100410.51;;;13.99;100.00
49645;BME280;36494;50.730;-1.932;2022-11-14T06:19:34;100405.06;;;14.02;100.00
49645;BME280;36494;50.730;-1.932;2022-11-14T06:22:00;100397.90;;;13.96;100.00
49645;BME280;36494;50.730;-1.932;2022-11-14T06:24:25;100395.97;;;13.98;100.00
49645;BME280;36494;50.730;-1.932;2022-11-14T06:26:51;100391.24;;;13.99;100.00
49645;BME280;36494;50.730;-1.932;2022-11-14T06:29:16;100387.11;;;13.98;100.00
49645;BME280;36494;50.730;-1.932;2022-11-14T06:31:41;100383.97;;;13.98;100.00
49645;BME280;36494;50.730;-1.932;2022-11-14T06:34:07;100386.87;;;14.00;100.00
49645;BME280;36494;50.730;-1.932;2022-11-14T06:36:32;100388.47;;;13.98;100.00
49645;BME280;36494;50.730;-1.932;2022-11-14T06:38:57;100386.99;;;13.98;100.00
49645;BME280;36494;50.730;-1.932;2022-11-14T06:41:22;100385.66;;;13.96;100.00
49645;BME280;36494;50.730;-1.932;2022-11-14T06:43:50;100385.37;;;13.96;100.00
49645;BME280;36494;50.730;-1.932;2022-11-14T06:46:15;100385.48;;;13.96;100.00
49645;BME280;36494;50.730;-1.932;2022-11-14T06:48:39;100380.21;;;13.96;100.00
49645;BME280;36494;50.730;-1.932;2022-11-14T06:51:05;100373.46;;;13.95;100.00
49645;BME280;36494;50.730;-1.932;2022-11-14T06:53:31;100369.99;;;13.91;100.00
49645;BME280;36494;50.730;-1.932;2022-11-14T06:55:56;100372.67;;;13.89;100.00
49645;BME280;36494;50.730;-1.932;2022-11-14T06:58:20;100372.00;;;13.85;100.00
49645;BME280;36494;50.730;-1.932;2022-11-14T07:00:45;100374.37;;;13.82;100.00
49645;BME280;36494;50.730;-1.932;2022-11-14T07:03:11;100374.74;;;13.79;100.00
49645;BME280;36494;50.730;-1.932;2022-11-14T07:05:36;100375.67;;;13.77;100.00
49645;BME280;36494;50.730;-1.932;2022-11-14T07:08:02;100375.43;;;13.76;100.00
49645;BME280;36494;50.730;-1.932;2022-11-14T07:10:28;100375.17;;;13.75;100.00
49645;BME280;36494;50.730;-1.932;2022-11-14T07:12:53;100375.77;;;13.73;100.00
49645;BME280;36494;50.730;-1.932;2022-11-14T07:15:18;100372.18;;;13.73;100.00
49645;BME280;36494;50.730;-1.932;2022-11-14T07:17:44;100376.83;;;13.69;100.00
49645;BME280;36494;50.730;-1.932;2022-11-14T07:20:09;100376.16;;;13.65;100.00
49645;BME280;36494;50.730;-1.932;2022-11-14T07:22:35;100374.42;;;13.63;100.00
49645;BME280;36494;50.730;-1.932;2022-11-14T07:25:00;100381.10;;;13.59;100.00
49645;BME280;36494;50.730;-1.932;2022-11-14T07:27:26;100389.69;;;13.54;100.00
49645;BME280;36494;50.730;-1.932;2022-11-14T07:29:51;100399.83;;;13.54;100.00
49645;BME280;36494;50.730;-1.932;2022-11-14T07:32:17;100404.18;;;13.58;100.00
49645;BME280;36494;50.730;-1.932;2022-11-14T07:34:42;100399.95;;;13.57;100.00
49645;BME280;36494;50.730;-1.932;2022-11-14T07:37:08;100399.37;;;13.61;100.00
49645;BME280;36494;50.730;-1.932;2022-11-14T07:39:33;100398.31;;;13.59;100.00
49645;BME280;36494;50.730;-1.932;2022-11-14T07:41:58;100398.22;;;13.56;100.00
49645;BME280;36494;50.730;-1.932;2022-11-14T07:44:24;100401.13;;;13.55;100.00
49645;BME280;36494;50.730;-1.932;2022-11-14T07:46:49;100405.30;;;13.57;100.00
49645;BME280;36494;50.730;-1.932;2022-11-14T07:49:15;100409.35;;;13.54;100.00
49645;BME280;36494;50.730;-1.932;2022-11-14T07:51:40;100410.29;;;13.59;100.00
49645;BME280;36494;50.730;-1.932;2022-11-14T07:54:05;100408.91;;;13.64;100.00
49645;BME280;36494;50.730;-1.932;2022-11-14T07:56:30;100409.10;;;13.58;100.00
49645;BME280;36494;50.730;-1.932;2022-11-14T07:58:57;100405.86;;;13.57;100.00
49645;BME280;36494;50.730;-1.932;2022-11-14T08:01:22;100406.49;;;13.63;100.00
49645;BME280;36494;50.730;-1.932;2022-11-14T08:03:47;100409.37;;;13.66;100.00
49645;BME280;36494;50.730;-1.932;2022-11-14T08:06:14;100407.20;;;13.71;100.00
49645;BME280;36494;50.730;-1.932;2022-11-14T08:08:38;100404.98;;;13.75;100.00
49645;BME280;36494;50.730;-1.932;2022-11-14T08:11:04;100404.33;;;13.74;100.00
49645;BME280;36494;50.730;-1.932;2022-11-14T08:13:30;100406.38;;;13.74;100.00
49645;BME280;36494;50.730;-1.932;2022-11-14T08:15:55;100401.39;;;13.76;100.00
49645;BME280;36494;50.730;-1.932;2022-11-14T08:18:21;100397.19;;;13.79;100.00
49645;BME280;36494;50.730;-1.932;2022-11-14T08:20:47;100393.81;;;13.79;100.00
49645;BME280;36494;50.730;-1.932;2022-11-14T08:23:12;100390.70;;;13.81;100.00
49645;BME280;36494;50.730;-1.932;2022-11-14T08:25:37;100392.89;;;13.83;100.00
49645;BME280;36494;50.730;-1.932;2022-11-14T08:28:03;100393.23;;;13.85;100.00
49645;BME280;36494;50.730;-1.932;2022-11-14T08:30:28;100398.56;;;13.87;100.00
49645;BME280;36494;50.730;-1.932;2022-11-14T08:32:53;100402.63;;;13.87;100.00
49645;BME280;36494;50.730;-1.932;2022-11-14T08:35:19;100403.27;;;13.88;100.00
49645;BME280;36494;50.730;-1.932;2022-11-14T08:37:44;100401.55;;;13.87;100.00
49645;BME280;36494;50.730;-1.932;2022-11-14T08:40:10;100400.07;;;13.85;100.00
49645;BME280;36494;50.730;-1.932;2022-11-14T08:42:35;100399.35;;;13.77;100.00
49645;BME280;36494;50.730;-1.932;2022-11-14T08:45:00;100398.15;;;13.83;100.00
49645;BME280;36494;50.730;-1.932;2022-11-14T08:47:25;100393.29;;;13.87;100.00
49645;BME280;36494;50.730;-1.932;2022-11-14T08:49:51;100390.37;;;13.90;100.00
49645;BME280;36494;50.730;-1.932;2022-11-14T08:52:17;100385.52;;;13.94;100.00
49645;BME280;36494;50.730;-1.932;2022-11-14T08:54:42;100381.64;;;13.95;100.00
49645;BME280;36494;50.730;-1.932;2022-11-14T08:57:07;100376.91;;;13.99;100.00
49645;BME280;36494;50.730;-1.932;2022-11-14T08:59:33;100374.51;;;14.00;100.00
49645;BME280;36494;50.730;-1.932;2022-11-14T09:01:59;100371.92;;;13.96;100.00
49645;BME280;36494;50.730;-1.932;2022-11-14T09:04:24;100368.84;;;14.00;100.00
49645;BME280;36494;50.730;-1.932;2022-11-14T09:06:49;100363.75;;;14.07;100.00
49645;BME280;36494;50.730;-1.932;2022-11-14T09:09:14;100365.28;;;14.11;100.00
49645;BME280;36494;50.730;-1.932;2022-11-14T09:11:40;100370.29;;;14.14;100.00
49645;BME280;36494;50.730;-1.932;2022-11-14T09:14:05;100371.91;;;14.17;100.00
49645;BME280;36494;50.730;-1.932;2022-11-14T09:16:30;100372.42;;;14.21;100.00
49645;BME280;36494;50.730;-1.932;2022-11-14T09:18:56;100367.06;;;14.23;100.00
49645;BME280;36494;50.730;-1.932;2022-11-14T09:21:21;100356.71;;;14.25;100.00
49645;BME280;36494;50.730;-1.932;2022-11-14T09:23:47;100354.27;;;14.25;100.00
49645;BME280;36494;50.730;-1.932;2022-11-14T09:26:12;100348.68;;;14.25;100.00
49645;BME280;36494;50.730;-1.932;2022-11-14T09:28:38;100351.13;;;14.24;100.00
49645;BME280;36494;50.730;-1.932;2022-11-14T09:31:05;100353.66;;;14.24;100.00
49645;BME280;36494;50.730;-1.932;2022-11-14T09:33:28;100347.45;;;14.26;100.00
49645;BME280;36494;50.730;-1.932;2022-11-14T09:35:56;100341.65;;;14.25;100.00
49645;BME280;36494;50.730;-1.932;2022-11-14T09:38:19;100334.57;;;14.26;100.00
49645;BME280;36494;50.730;-1.932;2022-11-14T09:40:56;100331.81;;;14.26;100.00
49645;BME280;36494;50.730;-1.932;2022-11-14T09:43:24;100327.33;;;14.26;100.00
49645;BME280;36494;50.730;-1.932;2022-11-14T09:45:37;100328.30;;;14.28;100.00
49645;BME280;36494;50.730;-1.932;2022-11-14T09:48:04;100324.84;;;14.28;100.00
49645;BME280;36494;50.730;-1.932;2022-11-14T09:50:29;100323.10;;;14.31;100.00
49645;BME280;36494;50.730;-1.932;2022-11-14T09:52:54;100320.32;;;14.36;100.00
49645;BME280;36494;50.730;-1.932;2022-11-14T09:55:19;100314.30;;;14.37;100.00
49645;BME280;36494;50.730;-1.932;2022-11-14T09:57:43;100309.92;;;14.36;100.00
49645;BME280;36494;50.730;-1.932;2022-11-14T10:00:15;100304.30;;;14.40;100.00
49645;BME280;36494;50.730;-1.932;2022-11-14T10:02:39;100304.24;;;14.44;100.00
49645;BME280;36494;50.730;-1.932;2022-11-14T10:05:17;100301.86;;;14.38;100.00
49645;BME280;36494;50.730;-1.932;2022-11-14T10:07:31;100305.01;;;14.43;100.00
49645;BME280;36494;50.730;-1.932;2022-11-14T10:09:56;100300.95;;;14.47;100.00
49645;BME280;36494;50.730;-1.932;2022-11-14T10:12:20;100298.41;;;14.48;100.00
49645;BME280;36494;50.730;-1.932;2022-11-14T10:14:49;100295.85;;;14.51;100.00
49645;BME280;36494;50.730;-1.932;2022-11-14T10:17:18;100298.55;;;14.53;100.00
49645;BME280;36494;50.730;-1.932;2022-11-14T10:19:37;100297.42;;;14.57;100.00
49645;BME280;36494;50.730;-1.932;2022-11-14T10:22:10;100290.79;;;14.60;100.00
49645;BME280;36494;50.730;-1.932;2022-11-14T10:24:35;100292.51;;;14.61;100.00
49645;BME280;36494;50.730;-1.932;2022-11-14T10:26:55;100293.28;;;14.63;100.00
49645;BME280;36494;50.730;-1.932;2022-11-14T10:29:29;100292.20;;;14.66;100.00
49645;BME280;36494;50.730;-1.932;2022-11-14T10:31:44;100291.85;;;14.70;100.00
49645;BME280;36494;50.730;-1.932;2022-11-14T10:34:09;100292.56;;;14.75;100.00
49645;BME280;36494;50.730;-1.932;2022-11-14T10:36:46;100294.76;;;14.77;100.00
49645;BME280;36494;50.730;-1.932;2022-11-14T10:39:02;100297.74;;;14.76;100.00
49645;BME280;36494;50.730;-1.932;2022-11-14T10:41:24;100294.11;;;14.79;100.00
49645;BME280;36494;50.730;-1.932;2022-11-14T10:43:49;100295.26;;;14.84;100.00
49645;BME280;36494;50.730;-1.932;2022-11-14T10:46:17;100299.43;;;14.87;100.00
49645;BME280;36494;50.730;-1.932;2022-11-14T10:48:41;100299.92;;;14.93;100.00
49645;BME280;36494;50.730;-1.932;2022-11-14T10:51:11;100300.66;;;14.97;100.00
49645;BME280;36494;50.730;-1.932;2022-11-14T10:53:42;100296.94;;;15.02;100.00
49645;BME280;36494;50.730;-1.932;2022-11-14T10:55:57;100295.04;;;15.05;100.00
49645;BME280;36494;50.730;-1.932;2022-11-14T10:58:21;100295.69;;;15.09;100.00
49645;BME280;36494;50.730;-1.932;2022-11-14T11:00:46;100290.16;;;15.12;100.00
49645;BME280;36494;50.730;-1.932;2022-11-14T11:03:11;100286.72;;;15.14;100.00
49645;BME280;36494;50.730;-1.932;2022-11-14T11:05:44;100285.35;;;15.16;100.00
49645;BME280;36494;50.730;-1.932;2022-11-14T11:08:07;100285.23;;;15.23;100.00
49645;BME280;36494;50.730;-1.932;2022-11-14T11:10:28;100287.18;;;15.25;100.00
49645;BME280;36494;50.730;-1.932;2022-11-14T11:12:53;100286.29;;;15.21;100.00
49645;BME280;36494;50.730;-1.932;2022-11-14T11:15:21;100289.27;;;15.21;100.00
49645;BME280;36494;50.730;-1.932;2022-11-14T11:17:53;100285.43;;;15.25;100.00
49645;BME280;36494;50.730;-1.932;2022-11-14T11:20:23;100283.48;;;15.35;100.00
49645;BME280;36494;50.730;-1.932;2022-11-14T11:22:37;100284.06;;;15.38;100.00
49645;BME280;36494;50.730;-1.932;2022-11-14T11:25:02;100283.27;;;15.43;100.00
49645;BME280;36494;50.730;-1.932;2022-11-14T11:27:29;100278.11;;;15.50;100.00
49645;BME280;36494;50.730;-1.932;2022-11-14T11:30:05;100273.00;;;15.50;100.00
49645;BME280;36494;50.730;-1.932;2022-11-14T11:32:24;100268.33;;;15.55;100.00
49645;BME280;36494;50.730;-1.932;2022-11-14T11:34:44;100263.73;;;15.53;100.00
49645;BME280;36494;50.730;-1.932;2022-11-14T11:37:14;100259.09;;;15.61;100.00
49645;BME280;36494;50.730;-1.932;2022-11-14T11:39:39;100254.22;;;15.67;100.00
49645;BME280;36494;50.730;-1.932;2022-11-14T11:42:05;100249.78;;;15.68;100.00
49645;BME280;36494;50.730;-1.932;2022-11-14T11:44:32;100249.04;;;15.75;100.00
49645;BME280;36494;50.730;-1.932;2022-11-14T11:46:54;100246.00;;;15.77;100.00
49645;BME280;36494;50.730;-1.932;2022-11-14T11:49:23;100246.72;;;15.77;100.00
49645;BME280;36494;50.730;-1.932;2022-11-14T11:51:44;100244.56;;;15.76;100.00
49645;BME280;36494;50.730;-1.932;2022-11-14T11:54:13;100242.96;;;15.85;100.00
49645;BME280;36494;50.730;-1.932;2022-11-14T11:56:36;100245.76;;;15.88;100.00
49645;BME280;36494;50.730;-1.932;2022-11-14T11:59:08;100245.33;;;15.96;100.00
49645;BME280;36494;50.730;-1.932;2022-11-14T12:01:25;100245.41;;;15.89;100.00
49645;BME280;36494;50.730;-1.932;2022-11-14T12:03:52;100245.12;;;15.87;100.00
49645;BME280;36494;50.730;-1.932;2022-11-14T12:06:17;100238.58;;;15.96;100.00
49645;BME280;36494;50.730;-1.932;2022-11-14T12:08:49;100240.61;;;15.97;100.00
49645;BME280;36494;50.730;-1.932;2022-11-14T12:11:15;100242.16;;;15.94;100.00
49645;BME280;36494;50.730;-1.932;2022-11-14T12:13:48;100243.58;;;16.01;100.00
49645;BME280;36494;50.730;-1.932;2022-11-14T12:16:04;100243.42;;;16.01;100.00
49645;BME280;36494;50.730;-1.932;2022-11-14T12:18:32;100241.19;;;15.99;100.00
49645;BME280;36494;50.730;-1.932;2022-11-14T12:20:55;100239.91;;;16.03;100.00